Time;durP1;ratioP1;P1;durP2;ratioP2;P2;SDS_P1;SDS_P2;PMS_P1;PMS_P2;Temp;Humidity;BMP_temperature;BMP_pressure;BME280_temperature;BME280_humidity;BME280_pressure;Samples;Min_cycle;Max_cycle;Signal;HPM_P1;HPM_P2
2024/04/01 00:00:45;;;;;;;;;;;;;;;;;;4975206;28;20054;-81
2024/04/01 00:03:12;;;;;;;8.82;1.27;;;;;;;;;;4979930;28;20257;-80
2024/04/01 00:05:38;;;;;;;8.20;1.60;;;;;;;;;;4974291;28;20045;-80
2024/04/01 00:08:04;;;;;;;;;;;;;;;;;;4980654;28;20054;-81
2024/04/01 00:10:30;;;;;;;9.40;1.65;;;;;;;;;;4975182;28;19967;-80
2024/04/01 00:12:59;;;;;;;7.35;1.45;;;;;;;;;;4978425;28;20590;-80
2024/04/01 00:15:27;;;;;;;10.75;1.77;;;;;;;;;;4974108;28;20472;-79
2024/04/01 00:17:55;;;;;;;10.35;1.85;;;;;;;;;;4977975;28;20034;-79
2024/04/01 00:20:21;;;;;;;8.93;1.40;;;;;;;;;;4977649;28;20949;-80
2024/04/01 00:22:47;;;;;;;7.68;1.63;;;;;;;;;;4977942;28;20059;-80
2024/04/01 00:25:13;;;;;;;8.48;1.40;;;;;;;;;;4980563;28;20072;-80
2024/04/01 00:27:39;;;;;;;;;;;;;;;;;;4977328;28;20045;-81
2024/04/01 00:30:06;;;;;;;7.97;1.60;;;;;;;;;;4978454;28;20499;-80
2024/04/01 00:32:33;;;;;;;9.32;1.50;;;;;;;;;;4975185;28;20030;-80
2024/04/01 00:35:01;;;;;;;7.18;1.65;;;;;;;;;;4979156;28;20057;-80
2024/04/01 00:37:27;;;;;;;8.82;1.70;;;;;;;;;;4978715;28;20052;-80
2024/04/01 00:39:53;;;;;;;8.63;1.90;;;;;;;;;;4983468;28;20105;-80
2024/04/01 00:42:19;;;;;;;8.45;1.58;;;;;;;;;;4982919;28;20116;-80
2024/04/01 00:44:45;;;;;;;10.80;1.73;;;;;;;;;;4979971;28;20029;-79
2024/04/01 00:47:11;;;;;;;7.38;1.40;;;;;;;;;;4981910;28;20044;-79
2024/04/01 00:49:37;;;;;;;;;;;;;;;;;;4979027;28;20052;-80
2024/04/01 00:52:04;;;;;;;8.00;1.48;;;;;;;;;;4980146;28;19913;-80
2024/04/01 00:54:30;;;;;;;;;;;;;;;;;;4981180;28;20046;-81
2024/04/01 00:56:56;;;;;;;9.20;1.70;;;;;;;;;;4982487;28;19921;-80
2024/04/01 00:59:23;;;;;;;10.77;1.92;;;;;;;;;;4981166;28;20030;-80
2024/04/01 01:01:50;;;;;;;10.07;1.95;;;;;;;;;;4981527;28;20041;-81
2024/04/01 01:04:16;;;;;;;8.52;1.85;;;;;;;;;;4982219;28;20030;-80
2024/04/01 01:06:43;;;;;;;8.85;1.90;;;;;;;;;;4978030;28;20810;-81
2024/04/01 01:09:12;;;;;;;8.93;1.70;;;;;;;;;;4982266;28;20021;-80
2024/04/01 01:11:39;;;;;;;12.45;1.80;;;;;;;;;;4977456;28;20038;-79
2024/04/01 01:14:07;;;;;;;7.43;1.40;;;;;;;;;;4982702;28;20112;-80
2024/04/01 01:16:33;;;;;;;10.52;1.63;;;;;;;;;;4977225;28;20141;-80
2024/04/01 01:18:59;;;;;;;8.60;1.50;;;;;;;;;;4981536;28;20037;-80
2024/04/01 01:21:26;;;;;;;11.02;1.63;;;;;;;;;;4979562;28;20034;-79
2024/04/01 01:23:52;;;;;;;10.48;1.90;;;;;;;;;;4980740;28;20074;-80
2024/04/01 01:26:19;;;;;;;8.23;2.13;;;;;;;;;;4981464;28;20053;-79
2024/04/01 01:28:45;;;;;;;10.02;2.35;;;;;;;;;;4978601;28;20427;-79
2024/04/01 01:31:12;;;;;;;9.95;2.13;;;;;;;;;;4980133;28;20041;-80
2024/04/01 01:33:38;;;;;;;12.43;2.15;;;;;;;;;;4976497;28;20025;-80
2024/04/01 01:36:04;;;;;;;11.50;2.28;;;;;;;;;;4981451;28;20743;-80
2024/04/01 01:38:31;;;;;;;;;;;;;;;;;;4977456;28;21190;-79
2024/04/01 01:40:57;;;;;;;11.00;2.28;;;;;;;;;;4979617;28;19914;-81
2024/04/01 01:43:24;;;;;;;8.48;1.60;;;;;;;;;;4973830;28;20032;-79
2024/04/01 01:45:50;;;;;;;10.40;2.25;;;;;;;;;;4979152;28;20503;-80
2024/04/01 01:48:16;;;;;;;9.18;2.25;;;;;;;;;;4978768;28;20484;-79
2024/04/01 01:50:42;;;;;;;;;;;;;;;;;;4978894;28;20041;-81
2024/04/01 01:53:09;;;;;;;10.63;1.85;;;;;;;;;;4980878;28;19959;-80
2024/04/01 01:55:35;;;;;;;;;;;;;;;;;;4977451;28;20061;-80
2024/04/01 01:58:01;;;;;;;11.98;2.20;;;;;;;;;;4982859;28;19917;-79
2024/04/01 02:00:28;;;;;;;10.52;2.20;;;;;;;;;;4972881;28;20445;-79
2024/04/01 02:02:54;;;;;;;;;;;;;;;;;;4982896;28;20030;-79
2024/04/01 02:05:20;;;;;;;10.88;3.03;;;;;;;;;;4980148;28;19924;-80
2024/04/01 02:07:46;;;;;;;9.45;1.92;;;;;;;;;;4977426;28;20044;-79
2024/04/01 02:10:21;;;;;;;;;;;;;;;;;;4980979;28;20744;-79
2024/04/01 02:12:51;;;;;;;11.77;2.10;;;;;;;;;;4977594;28;19914;-79
2024/04/01 02:15:20;;;;;;;13.45;2.55;;;;;;;;;;4978682;28;20068;-79
2024/04/01 02:17:46;;;;;;;9.02;1.63;;;;;;;;;;4974852;28;20487;-81
2024/04/01 02:20:15;;;;;;;11.27;1.85;;;;;;;;;;4983160;28;20609;-80
2024/04/01 02:22:43;;;;;;;11.68;3.63;;;;;;;;;;4976532;28;20034;-79
2024/04/01 02:25:09;;;;;;;9.00;1.95;;;;;;;;;;4981355;28;20149;-78
2024/04/01 02:27:35;;;;;;;;;;;;;;;;;;4977145;28;20037;-80
2024/04/01 02:30:04;;;;;;;11.70;2.58;;;;;;;;;;4982164;28;19944;-82
2024/04/01 02:32:31;;;;;;;10.43;1.92;;;;;;;;;;4992542;28;20034;-79
2024/04/01 02:34:57;;;;;;;9.32;2.75;;;;;;;;;;4980562;28;20033;-79
2024/04/01 02:37:23;;;;;;;12.52;2.47;;;;;;;;;;4978784;28;20779;-81
2024/04/01 02:39:49;;;;;;;9.43;1.80;;;;;;;;;;4982696;28;20022;-79
2024/04/01 02:42:15;;;;;;;8.52;1.77;;;;;;;;;;4980690;28;20026;-79
2024/04/01 02:44:42;;;;;;;9.25;2.15;;;;;;;;;;4976032;28;20022;-80
2024/04/01 02:47:08;;;;;;;12.30;1.90;;;;;;;;;;4980691;28;20037;-79
2024/04/01 02:49:35;;;;;;;9.13;1.55;;;;;;;;;;4976474;28;20116;-80
2024/04/01 02:52:01;;;;;;;9.93;2.10;;;;;;;;;;4979126;28;20056;-79
2024/04/01 02:54:28;;;;;;;8.68;1.95;;;;;;;;;;4976662;28;20128;-81
2024/04/01 02:56:55;;;;;;;10.20;2.20;;;;;;;;;;4979661;28;20041;-81
2024/04/01 02:59:21;;;;;;;11.77;2.08;;;;;;;;;;4980913;28;20025;-81
2024/04/01 03:01:47;;;;;;;11.68;2.25;;;;;;;;;;4976485;28;20045;-80
2024/04/01 03:04:14;;;;;;;11.50;2.00;;;;;;;;;;4982784;28;20033;-80
2024/04/01 03:06:40;;;;;;;10.23;2.00;;;;;;;;;;4976251;28;20041;-80
2024/04/01 03:09:06;;;;;;;9.40;2.03;;;;;;;;;;4979840;28;20863;-82
2024/04/01 03:11:32;;;;;;;10.25;2.20;;;;;;;;;;4976406;28;20042;-80
2024/04/01 03:13:59;;;;;;;11.90;2.00;;;;;;;;;;4982538;28;20033;-81
2024/04/01 03:16:25;;;;;;;;;;;;;;;;;;4977783;28;20256;-80
2024/04/01 03:18:51;;;;;;;10.98;2.20;;;;;;;;;;4982707;28;21226;-81
2024/04/01 03:21:18;;;;;;;10.07;1.80;;;;;;;;;;4986470;28;20592;-83
2024/04/01 03:23:44;;;;;;;9.13;1.77;;;;;;;;;;4978038;28;20042;-82
2024/04/01 03:26:10;;;;;;;;;;;;;;;;;;4981968;28;20038;-81
2024/04/01 03:28:36;;;;;;;10.77;2.10;;;;;;;;;;4976198;28;19913;-83
2024/04/01 03:31:02;;;;;;;;;;;;;;;;;;4980130;28;20510;-81
2024/04/01 03:33:28;;;;;;;12.15;2.60;;;;;;;;;;4975676;28;19913;-81
2024/04/01 03:35:55;;;;;;;13.82;2.20;;;;;;;;;;4980252;28;20038;-81
2024/04/01 03:38:23;;;;;;;9.48;1.88;;;;;;;;;;4979363;28;20033;-80
2024/04/01 03:40:49;;;;;;;10.05;1.98;;;;;;;;;;4977120;28;20034;-80
2024/04/01 03:43:15;;;;;;;11.73;1.70;;;;;;;;;;4980101;28;20518;-81
2024/04/01 03:45:42;;;;;;;9.65;2.20;;;;;;;;;;4977313;28;20072;-80
2024/04/01 03:48:08;;;;;;;;;;;;;;;;;;4980113;28;20033;-82
2024/04/01 03:50:34;;;;;;;12.38;2.10;;;;;;;;;;4975972;28;19917;-81
2024/04/01 03:53:00;;;;;;;9.77;1.90;;;;;;;;;;4978228;28;20037;-81
2024/04/01 03:55:26;;;;;;;9.88;1.85;;;;;;;;;;4976435;28;20045;-81
2024/04/01 03:57:52;;;;;;;9.93;2.05;;;;;;;;;;4979555;28;20538;-80
2024/04/01 04:00:19;;;;;;;8.40;1.77;;;;;;;;;;4977421;28;20137;-80
2024/04/01 04:02:45;;;;;;;10.98;1.95;;;;;;;;;;4975361;28;20121;-80
2024/04/01 04:05:11;;;;;;;9.60;1.88;;;;;;;;;;4979360;28;20345;-81
2024/04/01 04:07:38;;;;;;;10.20;2.00;;;;;;;;;;4974074;28;20181;-81
2024/04/01 04:10:05;;;;;;;10.15;2.00;;;;;;;;;;4979210;28;20033;-82
2024/04/01 04:12:34;;;;;;;10.27;2.10;;;;;;;;;;4980312;28;20038;-80
2024/04/01 04:15:04;;;;;;;11.10;1.83;;;;;;;;;;4982965;28;20690;-80
2024/04/01 04:17:31;;;;;;;9.45;1.92;;;;;;;;;;4974351;28;20029;-80
2024/04/01 04:19:57;;;;;;;9.02;2.03;;;;;;;;;;4982634;28;20128;-80
2024/04/01 04:22:23;;;;;;;;;;;;;;;;;;4978718;28;20848;-82
2024/04/01 04:24:50;;;;;;;9.32;2.00;;;;;;;;;;4982098;28;20718;-80
2024/04/01 04:27:16;;;;;;;11.48;1.70;;;;;;;;;;4984108;28;20044;-80
2024/04/01 04:29:42;;;;;;;;;;;;;;;;;;4979585;28;20099;-80
2024/04/01 04:32:10;;;;;;;9.93;1.65;;;;;;;;;;4981950;28;20026;-82
2024/04/01 04:34:36;;;;;;;10.15;1.88;;;;;;;;;;4978386;28;20134;-83
2024/04/01 04:37:05;;;;;;;8.27;1.70;;;;;;;;;;4982567;28;20029;-81
2024/04/01 04:39:32;;;;;;;9.50;1.98;;;;;;;;;;4979339;28;20058;-82
2024/04/01 04:41:58;;;;;;;12.15;1.92;;;;;;;;;;4983802;28;20384;-81
2024/04/01 04:44:24;;;;;;;9.73;1.83;;;;;;;;;;4979481;28;20857;-82
2024/04/01 04:46:50;;;;;;;8.63;1.80;;;;;;;;;;4983641;28;20044;-81
2024/04/01 04:49:18;;;;;;;10.30;1.90;;;;;;;;;;4985653;28;20066;-80
2024/04/01 04:51:44;;;;;;;9.63;2.10;;;;;;;;;;4979209;28;20385;-80
2024/04/01 04:54:10;;;;;;;;;;;;;;;;;;4983956;28;20030;-80
2024/04/01 04:56:36;;;;;;;10.43;1.98;;;;;;;;;;4982993;28;19928;-81
2024/04/01 04:59:05;;;;;;;12.82;2.05;;;;;;;;;;4988733;28;20030;-81
2024/04/01 05:01:32;;;;;;;9.65;2.03;;;;;;;;;;4983215;28;20165;-81
2024/04/01 05:03:59;;;;;;;12.02;2.28;;;;;;;;;;4984520;28;20038;-81
2024/04/01 05:06:25;;;;;;;8.23;1.98;;;;;;;;;;4981718;28;20060;-81
2024/04/01 05:08:51;;;;;;;11.15;2.05;;;;;;;;;;4985038;28;20056;-81
2024/04/01 05:11:17;;;;;;;10.30;1.70;;;;;;;;;;4985438;28;20093;-80
2024/04/01 05:13:43;;;;;;;9.88;1.98;;;;;;;;;;4981345;28;21305;-81
2024/04/01 05:16:10;;;;;;;9.73;1.92;;;;;;;;;;4982609;28;20049;-81
2024/04/01 05:18:36;;;;;;;11.13;2.15;;;;;;;;;;4981640;28;20065;-81
2024/04/01 05:21:02;;;;;;;11.35;2.20;;;;;;;;;;4981427;28;20591;-80
2024/04/01 05:23:29;;;;;;;;;;;;;;;;;;4978934;28;20133;-81
2024/04/01 05:25:56;;;;;;;9.23;1.95;;;;;;;;;;4982876;28;19972;-82
2024/04/01 05:28:22;;;;;;;10.65;1.90;;;;;;;;;;4997045;28;20824;-81
2024/04/01 05:30:57;;;;;;;;;;;;;;;;;;4984768;28;20484;-81
2024/04/01 05:33:26;;;;;;;11.88;2.10;;;;;;;;;;4981801;28;20145;-80
2024/04/01 05:35:53;;;;;;;10.25;2.30;;;;;;;;;;4979651;28;20088;-81
2024/04/01 05:38:19;;;;;;;10.80;2.30;;;;;;;;;;4984190;28;20029;-81
2024/04/01 05:40:45;;;;;;;11.90;2.30;;;;;;;;;;4979414;28;20030;-80
2024/04/01 05:43:11;;;;;;;;;;;;;;;;;;4967374;28;20030;-81
2024/04/01 05:45:37;;;;;;;9.75;2.17;;;;;;;;;;4980344;28;19917;-80
2024/04/01 05:48:03;;;;;;;11.00;2.47;;;;;;;;;;4982239;28;20104;-81
2024/04/01 05:50:29;;;;;;;;;;;;;;;;;;4977612;28;20140;-81
2024/04/01 05:52:56;;;;;;;9.55;2.17;;;;;;;;;;4982577;28;20005;-82
2024/04/01 05:55:22;;;;;;;10.98;1.77;;;;;;;;;;4983232;28;20079;-81
2024/04/01 05:57:48;;;;;;;12.93;2.00;;;;;;;;;;4979797;28;20041;-81
2024/04/01 06:00:15;;;;;;;10.73;2.00;;;;;;;;;;4980885;28;20069;-80
2024/04/01 06:02:41;;;;;;;10.93;2.15;;;;;;;;;;4977996;28;20095;-81
2024/04/01 06:05:07;;;;;;;10.27;1.88;;;;;;;;;;4985480;28;20065;-81
2024/04/01 06:07:33;;;;;;;;;;;;;;;;;;4979625;28;20037;-81
2024/04/01 06:10:00;;;;;;;10.00;2.20;;;;;;;;;;4981780;28;19916;-81
2024/04/01 06:12:26;;;;;;;10.98;1.75;;;;;;;;;;4978219;28;20029;-81
2024/04/01 06:14:53;;;;;;;10.95;2.10;;;;;;;;;;4982691;28;20041;-81
2024/04/01 06:17:19;;;;;;;8.52;2.28;;;;;;;;;;4981626;28;20137;-81
2024/04/01 06:19:45;;;;;;;10.73;2.10;;;;;;;;;;4979522;28;20149;-81
2024/04/01 06:22:11;;;;;;;11.50;3.35;;;;;;;;;;4981710;28;20997;-81
2024/04/01 06:24:38;;;;;;;12.23;2.83;;;;;;;;;;4980168;28;20048;-81
2024/04/01 06:27:05;;;;;;;11.45;2.95;;;;;;;;;;4981978;28;20025;-81
2024/04/01 06:29:32;;;;;;;9.20;2.20;;;;;;;;;;4976688;28;20092;-81
2024/04/01 06:31:58;;;;;;;13.30;2.55;;;;;;;;;;4982326;28;20123;-81
2024/04/01 06:34:24;;;;;;;10.40;2.60;;;;;;;;;;4981663;28;20104;-81
2024/04/01 06:36:50;;;;;;;10.18;2.45;;;;;;;;;;4980082;28;20100;-82
2024/04/01 06:39:17;;;;;;;10.55;2.38;;;;;;;;;;4982379;28;20038;-81
2024/04/01 06:41:43;;;;;;;11.88;2.35;;;;;;;;;;4980078;28;20041;-82
2024/04/01 06:44:15;;;;;;;11.40;2.65;;;;;;;;;;4983086;28;20837;-82
2024/04/01 06:46:42;;;;;;;11.40;2.05;;;;;;;;;;4978073;28;20579;-80
2024/04/01 06:49:08;;;;;;;10.43;2.05;;;;;;;;;;4984570;28;20688;-83
2024/04/01 06:51:34;;;;;;;7.57;2.13;;;;;;;;;;4976849;28;20041;-81
2024/04/01 06:54:00;;;;;;;10.05;2.28;;;;;;;;;;4980497;28;20053;-81
2024/04/01 06:56:27;;;;;;;11.57;2.17;;;;;;;;;;4976785;28;20061;-81
2024/04/01 06:58:54;;;;;;;11.30;2.70;;;;;;;;;;4980161;28;20034;-81
2024/04/01 07:01:20;;;;;;;13.25;2.42;;;;;;;;;;4981173;28;20058;-81
2024/04/01 07:03:46;;;;;;;10.90;2.20;;;;;;;;;;4979957;28;20064;-81
2024/04/01 07:06:12;;;;;;;11.65;2.47;;;;;;;;;;4980614;28;20038;-82
2024/04/01 07:08:39;;;;;;;9.25;2.28;;;;;;;;;;4977720;28;20177;-80
2024/04/01 07:11:05;;;;;;;12.20;2.45;;;;;;;;;;4982249;28;20038;-80
2024/04/01 07:13:31;;;;;;;11.52;2.40;;;;;;;;;;4978947;28;20032;-80
2024/04/01 07:16:03;;;;;;;10.00;2.17;;;;;;;;;;4981748;28;20034;-80
2024/04/01 07:18:31;;;;;;;10.90;2.30;;;;;;;;;;4978592;28;20030;-82
2024/04/01 07:20:57;;;;;;;13.77;2.50;;;;;;;;;;4981403;28;20030;-82
2024/04/01 07:23:23;;;;;;;9.18;2.10;;;;;;;;;;4978045;28;20078;-82
2024/04/01 07:25:50;;;;;;;10.23;2.20;;;;;;;;;;4980909;28;20037;-82
2024/04/01 07:28:16;;;;;;;12.02;3.00;;;;;;;;;;4978546;28;20124;-82
2024/04/01 07:30:43;;;;;;;12.98;5.15;;;;;;;;;;4978885;28;20025;-83
2024/04/01 07:33:09;;;;;;;12.48;4.50;;;;;;;;;;4980612;28;20045;-80
2024/04/01 07:35:35;;;;;;;13.98;4.18;;;;;;;;;;4978610;28;20038;-82
2024/04/01 07:38:01;;;;;;;;;;;;;;;;;;4982639;28;20029;-82
2024/04/01 07:40:27;;;;;;;15.60;3.60;;;;;;;;;;4976137;28;19917;-81
2024/04/01 07:42:53;;;;;;;11.80;2.65;;;;;;;;;;4981924;28;20657;-81
2024/04/01 07:45:19;;;;;;;12.55;2.40;;;;;;;;;;4984287;28;20824;-82
2024/04/01 07:47:46;;;;;;;9.20;2.00;;;;;;;;;;4982875;28;20030;-81
2024/04/01 07:50:12;;;;;;;10.20;2.28;;;;;;;;;;4986035;28;20767;-82
2024/04/01 07:52:39;;;;;;;9.07;1.90;;;;;;;;;;4983221;28;20040;-82
2024/04/01 07:55:06;;;;;;;9.07;2.17;;;;;;;;;;4985049;28;20040;-82
2024/04/01 07:57:32;;;;;;;8.98;1.90;;;;;;;;;;4977057;28;20475;-81
2024/04/01 07:59:59;;;;;;;10.73;2.05;;;;;;;;;;4980654;28;20033;-82
2024/04/01 08:02:25;;;;;;;8.02;1.80;;;;;;;;;;4979784;28;20038;-81
2024/04/01 08:04:52;;;;;;;11.30;2.40;;;;;;;;;;4988189;28;20032;-80
2024/04/01 08:07:18;;;;;;;9.40;2.00;;;;;;;;;;4986785;28;20062;-83
2024/04/01 08:09:44;;;;;;;7.43;1.50;;;;;;;;;;4986165;28;20104;-82
2024/04/01 08:12:10;;;;;;;;;;;;;;;;;;4987451;28;20042;-83
2024/04/01 08:14:37;;;;;;;14.65;1.90;;;;;;;;;;4981821;28;19917;-82
2024/04/01 08:17:03;;;;;;;;;;;;;;;;;;4986397;28;20053;-81
2024/04/01 08:19:30;;;;;;;10.02;1.70;;;;;;;;;;4982301;28;19917;-82
2024/04/01 08:21:56;;;;;;;6.40;1.35;;;;;;;;;;4985680;28;20037;-81
2024/04/01 08:24:23;;;;;;;9.07;1.80;;;;;;;;;;4984859;28;20041;-81
2024/04/01 08:26:50;;;;;;;9.40;2.10;;;;;;;;;;4986809;28;20176;-83
2024/04/01 08:29:16;;;;;;;10.35;2.28;;;;;;;;;;4986367;28;20044;-82
2024/04/01 08:31:42;;;;;;;;;;;;;;;;;;4984588;28;20034;-81
2024/04/01 08:34:09;;;;;;;9.18;1.83;;;;;;;;;;4985215;28;20443;-81
2024/04/01 08:36:36;;;;;;;7.63;1.50;;;;;;;;;;4980410;28;20908;-82
2024/04/01 08:39:03;;;;;;;9.43;1.80;;;;;;;;;;4988473;28;20064;-82
2024/04/01 08:41:52;;;;;;;7.97;1.55;;;;;;;;;;4983228;28;20018;-83
2024/04/01 08:44:20;;;;;;;8.05;1.48;;;;;;;;;;4981559;28;20041;-81
2024/04/01 08:46:48;;;;;;;7.18;1.50;;;;;;;;;;4982651;28;20147;-81
2024/04/01 08:49:15;;;;;;;6.03;1.30;;;;;;;;;;4983469;28;20184;-81
2024/04/01 08:51:42;;;;;;;6.38;1.50;;;;;;;;;;4981216;28;20609;-81
2024/04/01 08:54:11;;;;;;;6.75;1.30;;;;;;;;;;4984265;28;20103;-82
2024/04/01 08:56:41;;;;;;;6.65;1.15;;;;;;;;;;4982408;28;20524;-80
2024/04/01 08:59:08;;;;;;;7.53;1.45;;;;;;;;;;4986793;28;20356;-80
2024/04/01 09:01:34;;;;;;;6.35;1.40;;;;;;;;;;4979672;28;20042;-82
2024/04/01 09:04:01;;;;;;;6.78;1.50;;;;;;;;;;4985709;28;20030;-80
2024/04/01 09:06:28;;;;;;;10.55;1.50;;;;;;;;;;4988610;28;20034;-86
2024/04/01 09:08:54;;;;;;;7.50;1.60;;;;;;;;;;4997134;28;20061;-87
2024/04/01 09:11:25;;;;;;;12.50;1.92;;;;;;;;;;4996475;28;20145;-86
2024/04/01 09:13:52;;;;;;;8.63;1.60;;;;;;;;;;4997600;28;20044;-88
2024/04/01 09:16:28;;;;;;;7.60;1.40;;;;;;;;;;4996383;28;20026;-86
2024/04/01 09:18:55;;;;;;;6.47;1.40;;;;;;;;;;4996475;28;20092;-88
2024/04/01 09:21:22;;;;;;;8.60;1.60;;;;;;;;;;4995321;28;20412;-88
2024/04/01 09:23:48;;;;;;;5.78;1.35;;;;;;;;;;4999264;28;20034;-86
2024/04/01 09:26:15;;;;;;;8.25;1.50;;;;;;;;;;5001401;28;20432;-87
2024/04/01 09:28:45;;;;;;;5.88;1.13;;;;;;;;;;5002246;28;20034;-87
2024/04/01 09:31:11;;;;;;;6.97;1.48;;;;;;;;;;5012857;28;20014;-89
2024/04/01 09:33:43;;;;;;;6.85;1.15;;;;;;;;;;5008856;28;20048;-92
2024/04/01 09:36:10;;;;;;;8.18;1.52;;;;;;;;;;5005431;28;20030;-88
2024/04/01 09:38:39;;;;;;;5.53;1.13;;;;;;;;;;5005567;28;20034;-87
2024/04/01 09:41:05;;;;;;;9.43;1.80;;;;;;;;;;5010519;28;20020;-87
2024/04/01 09:43:33;;;;;;;7.18;1.27;;;;;;;;;;5009811;28;20475;-87
2024/04/01 09:45:59;;;;;;;5.43;1.13;;;;;;;;;;5012504;28;20037;-87
2024/04/01 09:48:28;;;;;;;6.70;1.58;;;;;;;;;;5012068;28;20026;-85
2024/04/01 09:50:56;;;;;;;6.85;1.38;;;;;;;;;;5002407;28;20040;-87
2024/04/01 09:53:23;;;;;;;10.13;1.58;;;;;;;;;;5006945;28;20022;-87
2024/04/01 09:56:04;;;;;;;8.20;1.92;;;;;;;;;;5005860;28;20025;-85
2024/04/01 09:58:40;;;;;;;7.65;1.52;;;;;;;;;;5001667;28;20049;-87
2024/04/01 10:01:18;;;;;;;6.57;1.23;;;;;;;;;;5007047;28;20056;-85
2024/04/01 10:04:13;;;;;;;8.93;2.10;;;;;;;;;;5011423;28;20018;-88
2024/04/01 10:06:56;;;;;;;7.43;1.42;;;;;;;;;;5005904;28;20041;-87
2024/04/01 10:09:42;;;;;;;7.18;1.10;;;;;;;;;;5014112;28;20116;-89
2024/04/01 10:12:27;;;;;;;7.18;1.67;;;;;;;;;;5017858;28;20018;-92
2024/04/01 10:14:53;;;;;;;7.28;1.65;;;;;;;;;;5021762;28;20037;-87
2024/04/01 10:17:38;;;;;;;4.97;1.38;;;;;;;;;;5014679;28;20034;-88
2024/04/01 10:20:06;;;;;;;7.75;1.30;;;;;;;;;;5013053;28;20032;-86
2024/04/01 10:23:01;;;;;;;6.82;1.67;;;;;;;;;;5008142;28;20081;-87
2024/04/01 10:25:53;;;;;;;9.10;1.80;;;;;;;;;;5009053;28;20037;-89
2024/04/01 10:28:38;;;;;;;7.68;1.40;;;;;;;;;;4987101;28;20279;-90
2024/04/01 10:31:04;;;;;;;7.30;1.60;;;;;;;;;;5007939;28;20029;-88
2024/04/01 10:33:38;;;;;;;9.55;1.40;;;;;;;;;;5002358;28;20033;-89
2024/04/01 10:36:08;;;;;;;9.00;1.70;;;;;;;;;;5007620;28;20041;-87
2024/04/01 10:38:51;;;;;;;5.90;1.23;;;;;;;;;;5001288;28;20032;-88
2024/04/01 10:41:27;;;;;;;8.50;1.65;;;;;;;;;;4998826;28;20014;-87
2024/04/01 10:43:56;;;;;;;7.60;1.67;;;;;;;;;;4997691;28;20044;-88
2024/04/01 10:46:42;;;;;;;8.07;1.73;;;;;;;;;;4997432;28;20125;-89
2024/04/01 10:49:25;;;;;;;9.07;1.50;;;;;;;;;;4998852;28;20081;-87
2024/04/01 10:51:52;;;;;;;7.75;1.95;;;;;;;;;;5004601;28;20053;-89
2024/04/01 10:54:20;;;;;;;10.75;1.65;;;;;;;;;;4998295;28;20057;-85
2024/04/01 10:56:56;;;;;;;7.05;1.33;;;;;;;;;;4991284;28;20092;-89
2024/04/01 10:59:41;;;;;;;6.18;1.50;;;;;;;;;;4997148;28;20032;-89
2024/04/01 11:02:29;;;;;;;6.75;1.33;;;;;;;;;;4997709;28;20037;-88
2024/04/01 11:05:14;;;;;;;7.68;1.23;;;;;;;;;;4994542;28;20026;-86
2024/04/01 11:07:59;;;;;;;6.85;1.33;;;;;;;;;;4999013;28;20122;-90
2024/04/01 11:10:40;;;;;;;7.07;1.40;;;;;;;;;;4998812;28;20156;-86
2024/04/01 11:13:37;;;;;;;8.07;1.50;;;;;;;;;;4998496;28;20421;-88
2024/04/01 11:16:05;;;;;;;7.53;1.55;;;;;;;;;;4993494;28;20093;-86
2024/04/01 11:18:51;;;;;;;6.43;1.40;;;;;;;;;;4988671;28;20038;-85
2024/04/01 11:21:33;;;;;;;6.20;1.10;;;;;;;;;;4992199;28;20033;-85
2024/04/01 11:24:00;;;;;;;6.22;1.33;;;;;;;;;;4989359;28;20025;-86
2024/04/01 11:26:32;;;;;;;7.82;1.67;;;;;;;;;;4988821;28;20030;-86
2024/04/01 11:29:10;;;;;;;8.98;1.52;;;;;;;;;;4994827;28;20363;-86
2024/04/01 11:31:43;;;;;;;7.63;1.48;;;;;;;;;;4997992;28;20045;-88
2024/04/01 11:34:29;;;;;;;9.05;1.70;;;;;;;;;;4995457;28;20038;-86
2024/04/01 11:37:18;;;;;;;11.55;2.10;;;;;;;;;;4996330;28;20037;-86
2024/04/01 11:39:49;;;;;;;7.47;1.90;;;;;;;;;;4943512;28;20098;-86
2024/04/01 11:42:18;;;;;;;8.15;1.50;;;;;;;;;;4928552;28;20063;-87
2024/04/01 11:44:45;;;;;;;8.52;1.90;;;;;;;;;;4930136;28;20039;-87
2024/04/01 11:47:12;;;;;;;8.90;1.70;;;;;;;;;;4951540;28;20119;-88
2024/04/01 11:49:41;;;;;;;6.50;1.35;;;;;;;;;;4935000;28;20301;-89
2024/04/01 11:52:17;;;;;;;9.00;1.52;;;;;;;;;;4954796;28;20066;-89
2024/04/01 11:54:45;;;;;;;7.22;1.25;;;;;;;;;;4936994;28;20176;-87
2024/04/01 11:57:24;;;;;;;8.65;1.50;;;;;;;;;;4921802;28;20058;-87
2024/04/01 11:59:51;;;;;;;7.18;1.33;;;;;;;;;;4933230;28;20520;-86
2024/04/01 12:02:18;;;;;;;6.63;1.42;;;;;;;;;;4927451;28;20157;-86
2024/04/01 12:04:46;;;;;;;7.72;1.45;;;;;;;;;;4932474;28;21008;-87
2024/04/01 12:07:18;;;;;;;6.47;1.73;;;;;;;;;;4948663;28;20128;-87
2024/04/01 12:09:49;;;;;;;7.68;1.55;;;;;;;;;;4938710;28;20071;-88
2024/04/01 12:12:17;;;;;;;6.13;1.20;;;;;;;;;;4930074;28;20088;-86
2024/04/01 12:14:45;;;;;;;4.80;1.05;;;;;;;;;;4943533;28;22119;-89
2024/04/01 12:17:11;;;;;;;9.02;1.42;;;;;;;;;;4977701;28;20129;-88
2024/04/01 12:19:38;;;;;;;7.60;0.85;;;;;;;;;;4994605;28;20034;-86
2024/04/01 12:22:05;;;;;;;6.18;1.40;;;;;;;;;;4995961;28;20022;-84
2024/04/01 12:24:32;;;;;;;5.15;1.10;;;;;;;;;;4995442;28;20101;-88
2024/04/01 12:27:03;;;;;;;5.93;1.15;;;;;;;;;;5001366;28;20021;-89
2024/04/01 12:29:36;;;;;;;4.72;1.00;;;;;;;;;;4998480;28;20030;-87
2024/04/01 12:32:03;;;;;;;4.82;0.95;;;;;;;;;;5000273;28;20030;-87
2024/04/01 12:34:43;;;;;;;7.95;1.00;;;;;;;;;;4998362;28;20037;-87
2024/04/01 12:37:11;;;;;;;6.82;0.93;;;;;;;;;;4980558;28;20034;-90
2024/04/01 12:39:48;;;;;;;8.82;1.13;;;;;;;;;;4995305;28;20038;-86
2024/04/01 12:42:21;;;;;;;7.85;1.20;;;;;;;;;;4994075;28;20165;-87
2024/04/01 12:44:50;;;;;;;4.20;0.82;;;;;;;;;;4990609;28;20029;-87
2024/04/01 12:47:19;;;;;;;10.05;1.40;;;;;;;;;;4995348;28;20038;-86
2024/04/01 12:49:46;;;;;;;8.70;1.40;;;;;;;;;;4992856;28;20073;-86
2024/04/01 12:52:14;;;;;;;4.07;1.10;;;;;;;;;;4993315;28;20030;-86
2024/04/01 12:55:02;;;;;;;7.68;1.63;;;;;;;;;;4992705;28;20453;-86
2024/04/01 12:58:03;;;;;;;7.20;1.45;;;;;;;;;;4993998;28;20249;-86
2024/04/01 13:00:31;;;;;;;6.68;1.23;;;;;;;;;;4949254;28;20117;-86
2024/04/01 13:03:27;;;;;;;5.70;1.00;;;;;;;;;;4938178;28;20047;-88
2024/04/01 13:06:12;;;;;;;5.95;1.20;;;;;;;;;;4935304;28;21207;-90
2024/04/01 13:08:57;;;;;;;5.45;1.05;;;;;;;;;;4944521;28;20071;-92
2024/04/01 13:11:40;;;;;;;5.57;0.98;;;;;;;;;;4940323;28;20038;-90
2024/04/01 13:14:25;;;;;;;6.43;1.20;;;;;;;;;;4947669;28;20130;-90
2024/04/01 13:17:18;;;;;;;5.68;1.20;;;;;;;;;;4944700;28;20074;-90
2024/04/01 13:19:50;;;;;;;9.35;0.95;;;;;;;;;;4941689;28;20958;-89
2024/04/01 13:22:27;;;;;;;4.70;1.20;;;;;;;;;;4961275;28;20030;-91
2024/04/01 13:25:00;;;;;;;5.75;1.08;;;;;;;;;;4928641;28;20141;-91
2024/04/01 13:27:38;;;;;;;8.57;1.17;;;;;;;;;;4957529;28;20035;-88
2024/04/01 13:30:07;;;;;;;4.78;1.02;;;;;;;;;;4936744;28;20054;-89
2024/04/01 13:32:51;;;;;;;4.35;0.93;;;;;;;;;;4938019;28;20608;-89
2024/04/01 13:35:37;;;;;;;3.70;0.73;;;;;;;;;;4944504;28;20051;-91
2024/04/01 13:38:09;;;;;;;5.50;1.10;;;;;;;;;;4999835;28;20061;-92
2024/04/01 13:41:02;;;;;;;2.78;0.82;;;;;;;;;;4985236;28;20109;-92
2024/04/01 13:43:44;;;;;;;3.80;1.02;;;;;;;;;;5004311;28;20038;-90
2024/04/01 13:46:17;;;;;;;4.35;0.90;;;;;;;;;;5011120;28;20516;-91
2024/04/01 13:48:56;;;;;;;5.45;1.00;;;;;;;;;;5001362;28;21283;-91
2024/04/01 13:51:34;;;;;;;4.28;0.95;;;;;;;;;;5002319;28;20110;-90
2024/04/01 13:54:00;;;;;;;4.70;0.88;;;;;;;;;;5001955;28;20032;-91
2024/04/01 13:56:35;;;;;;;6.30;0.90;;;;;;;;;;5000324;28;20104;-90
2024/04/01 13:59:17;;;;;;;4.10;0.90;;;;;;;;;;5002948;28;20030;-91
2024/04/01 14:01:47;;;;;;;3.72;0.73;;;;;;;;;;5000220;28;20392;-92
2024/04/01 14:04:17;;;;;;;3.72;0.80;;;;;;;;;;5000933;28;20092;-92
2024/04/01 14:07:02;;;;;;;5.53;1.00;;;;;;;;;;5000557;28;21253;-91
2024/04/01 14:09:36;;;;;;;3.60;0.80;;;;;;;;;;5003857;28;20042;-91
2024/04/01 14:12:20;;;;;;;6.03;0.95;;;;;;;;;;5004491;28;20061;-91
2024/04/01 14:14:47;;;;;;;3.10;0.70;;;;;;;;;;5002041;28;20042;-90
2024/04/01 14:17:27;;;;;;;4.68;1.13;;;;;;;;;;5000712;28;20042;-91
2024/04/01 14:20:07;;;;;;;6.45;1.63;;;;;;;;;;5002016;28;20037;-89
2024/04/01 14:22:33;;;;;;;4.57;0.80;;;;;;;;;;4996142;28;20056;-86
2024/04/01 14:25:01;;;;;;;3.13;0.90;;;;;;;;;;4998181;28;20044;-88
2024/04/01 14:27:29;;;;;;;4.85;0.82;;;;;;;;;;4992151;28;20069;-87
2024/04/01 14:29:56;;;;;;;5.80;0.90;;;;;;;;;;4992128;28;20041;-85
2024/04/01 14:32:25;;;;;;;6.32;1.10;;;;;;;;;;4989733;28;20029;-86
2024/04/01 14:34:51;;;;;;;3.38;0.80;;;;;;;;;;4992760;28;20053;-88
2024/04/01 14:37:19;;;;;;;7.38;1.00;;;;;;;;;;4989960;28;20045;-88
2024/04/01 14:39:47;;;;;;;4.53;0.90;;;;;;;;;;4989275;28;20038;-88
2024/04/01 14:42:14;;;;;;;4.05;0.85;;;;;;;;;;4998920;28;20037;-91
2024/04/01 14:44:44;;;;;;;6.80;1.08;;;;;;;;;;4998821;28;20025;-89
2024/04/01 14:47:13;;;;;;;4.20;0.70;;;;;;;;;;5007346;28;20029;-88
2024/04/01 14:49:40;;;;;;;4.57;0.88;;;;;;;;;;4993631;28;20042;-88
2024/04/01 14:52:09;;;;;;;7.57;0.90;;;;;;;;;;4993313;28;20120;-88
2024/04/01 14:54:37;;;;;;;4.28;0.80;;;;;;;;;;4994702;28;20065;-86
2024/04/01 14:57:06;;;;;;;5.40;0.98;;;;;;;;;;4993213;28;20044;-86
2024/04/01 14:59:32;;;;;;;4.45;0.60;;;;;;;;;;4992852;28;20034;-86
2024/04/01 15:01:58;;;;;;;5.93;1.10;;;;;;;;;;4993911;28;20783;-88